createdAt,value
2018-12-29T00:00:44.987Z,0.00
2018-12-29T00:01:44.982Z,0.00
2018-12-29T00:02:44.971Z,0.00
2018-12-29T00:03:44.962Z,0.00
2018-12-29T00:04:44.973Z,0.00
2018-12-29T00:05:44.972Z,0.00
2018-12-29T00:06:44.934Z,0.00
2018-12-29T00:07:44.914Z,0.00
2018-12-29T00:08:44.907Z,0.00
2018-12-29T00:09:44.916Z,0.00
2018-12-29T00:10:44.880Z,0.00
2018-12-29T00:11:44.925Z,0.00
2018-12-29T00:12:44.865Z,0.00
2018-12-29T00:13:44.848Z,0.00
2018-12-29T00:14:44.865Z,0.00
2018-12-29T00:15:44.828Z,0.00
2018-12-29T00:16:44.814Z,0.00
2018-12-29T00:17:44.842Z,0.00
2018-12-29T00:18:44.822Z,0.00
2018-12-29T00:19:44.788Z,0.00
2018-12-29T00:20:44.796Z,0.00
2018-12-29T00:21:44.757Z,0.00
2018-12-29T00:22:44.742Z,0.00
2018-12-29T00:23:44.741Z,0.00
2018-12-29T00:24:44.775Z,0.00
2018-12-29T00:25:44.741Z,0.00
2018-12-29T00:26:44.705Z,0.00
2018-12-29T00:27:44.694Z,0.00
2018-12-29T00:28:44.686Z,0.00
2018-12-29T00:29:44.668Z,0.00
2018-12-29T00:30:44.724Z,0.00
2018-12-29T00:31:44.651Z,0.00
2018-12-29T00:32:44.645Z,0.00
2018-12-29T00:33:44.632Z,0.00
2018-12-29T00:34:44.615Z,0.00
2018-12-29T00:35:44.630Z,0.00
2018-12-29T00:36:44.628Z,0.00
2018-12-29T00:37:44.584Z,0.00
2018-12-29T00:38:44.571Z,0.00
2018-12-29T00:39:44.589Z,0.00
2018-12-29T00:40:44.551Z,0.00
2018-12-29T00:41:44.567Z,0.00
2018-12-29T00:42:44.562Z,0.00
2018-12-29T00:43:44.521Z,0.00
2018-12-29T00:44:44.517Z,0.00
2018-12-29T00:45:45.524Z,0.00
2018-12-29T00:46:44.509Z,0.00
2018-12-29T00:47:44.480Z,0.00
2018-12-29T00:48:44.471Z,0.00
2018-12-29T00:49:44.480Z,0.00
2018-12-29T00:50:44.446Z,0.00
2018-12-29T00:51:44.455Z,0.00
2018-12-29T00:52:44.423Z,0.00
2018-12-29T00:53:44.407Z,0.00
2018-12-29T00:54:44.431Z,0.00
2018-12-29T00:55:44.393Z,0.00
2018-12-29T00:56:44.410Z,0.00
2018-12-29T00:57:44.389Z,0.00
2018-12-29T00:58:44.361Z,0.00
2018-12-29T00:59:44.344Z,0.00
2018-12-29T01:00:44.333Z,0.00
2018-12-29T01:01:44.324Z,0.00
2018-12-29T01:02:44.364Z,0.00
2018-12-29T01:03:44.303Z,0.00
2018-12-29T01:04:44.301Z,0.00
2018-12-29T01:05:44.279Z,0.00
2018-12-29T01:06:44.262Z,0.00
2018-12-29T01:07:44.280Z,0.00
2018-12-29T01:08:44.244Z,0.00
2018-12-29T01:09:44.265Z,0.00
2018-12-29T01:10:44.228Z,0.00
2018-12-29T01:11:44.215Z,0.00
2018-12-29T01:12:44.222Z,0.00
2018-12-29T01:13:44.198Z,0.00
2018-12-29T01:14:44.203Z,0.00
2018-12-29T01:15:44.192Z,0.00
2018-12-29T01:16:44.157Z,0.00
2018-12-29T01:17:44.150Z,0.00
2018-12-29T01:18:44.164Z,0.00
2018-12-29T01:19:44.130Z,0.00
2018-12-29T01:20:44.119Z,0.00
2018-12-29T01:21:44.161Z,0.00
2018-12-29T01:22:44.093Z,0.00
2018-12-29T01:23:44.106Z,0.00
2018-12-29T01:24:44.072Z,0.00
2018-12-29T01:25:44.062Z,0.00
2018-12-29T01:26:44.054Z,0.00
2018-12-29T01:27:44.097Z,0.00
2018-12-29T01:28:44.054Z,0.00
2018-12-29T01:29:44.019Z,0.00
2018-12-29T01:30:44.011Z,0.00
2018-12-29T01:31:43.999Z,0.00
2018-12-29T01:32:43.985Z,0.00
2018-12-29T01:33:44.043Z,0.00
2018-12-29T01:34:43.968Z,0.00
2018-12-29T01:35:43.958Z,0.00
2018-12-29T01:36:43.949Z,0.00
2018-12-29T01:37:43.932Z,0.00
2018-12-29T01:38:43.942Z,0.00
2018-12-29T01:39:43.945Z,0.00
2018-12-29T01:40:43.920Z,0.00
2018-12-29T01:41:43.887Z,0.00
2018-12-29T01:42:43.882Z,0.00
2018-12-29T01:43:43.878Z,0.00
2018-12-29T01:44:43.893Z,0.00
2018-12-29T01:45:43.843Z,0.00
2018-12-29T01:46:43.856Z,0.00
2018-12-29T01:47:43.930Z,0.00
2018-12-29T01:48:43.813Z,0.00
2018-12-29T01:49:43.823Z,0.00
2018-12-29T01:50:43.790Z,0.00
2018-12-29T01:51:43.782Z,0.00
2018-12-29T01:52:43.789Z,0.00
2018-12-29T01:53:43.761Z,0.00
2018-12-29T01:54:43.778Z,0.00
2018-12-29T01:55:43.745Z,0.00
2018-12-29T01:56:43.726Z,0.00
2018-12-29T01:57:43.712Z,0.00
2018-12-29T01:58:43.698Z,0.00
2018-12-29T01:59:43.882Z,0.00
2018-12-29T02:00:43.684Z,0.00
2018-12-29T02:01:43.666Z,0.00
2018-12-29T02:02:43.660Z,0.00
2018-12-29T02:03:43.650Z,0.00
2018-12-29T02:04:43.637Z,0.00
2018-12-29T02:05:43.674Z,0.00
2018-12-29T02:06:43.620Z,0.00
2018-12-29T02:07:43.605Z,0.00
2018-12-29T02:08:43.598Z,0.00
2018-12-29T02:09:43.587Z,0.00
2018-12-29T02:10:43.591Z,0.00
2018-12-29T02:11:43.561Z,0.00
2018-12-29T02:12:43.576Z,0.00
2018-12-29T02:13:43.540Z,0.00
2018-12-29T02:14:43.531Z,0.00
2018-12-29T02:15:43.544Z,0.00
2018-12-29T02:16:43.504Z,0.00
2018-12-29T02:17:43.499Z,0.00
2018-12-29T02:18:43.518Z,0.00
2018-12-29T02:19:43.474Z,0.00
2018-12-29T02:20:43.485Z,0.00
2018-12-29T02:21:43.478Z,0.00
2018-12-29T02:22:43.439Z,0.00
2018-12-29T02:23:43.432Z,0.00
2018-12-29T02:24:43.452Z,0.00
2018-12-29T02:25:43.412Z,0.00
2018-12-29T02:26:43.421Z,0.00
2018-12-29T02:27:43.387Z,0.00
2018-12-29T02:28:43.387Z,0.00
2018-12-29T02:29:43.365Z,0.00
2018-12-29T02:30:43.353Z,0.00
2018-12-29T02:31:43.399Z,0.00
2018-12-29T02:32:43.328Z,0.00
2018-12-29T02:33:43.318Z,0.00
2018-12-29T02:34:43.310Z,0.00
2018-12-29T02:35:43.300Z,0.00
2018-12-29T02:36:43.311Z,0.00
2018-12-29T02:37:43.335Z,0.00
2018-12-29T02:38:43.280Z,0.00
2018-12-29T02:39:43.264Z,0.00
2018-12-29T02:40:43.251Z,0.00
2018-12-29T02:41:43.234Z,0.00
2018-12-29T02:42:43.255Z,0.00
2018-12-29T02:43:43.249Z,0.00
2018-12-29T02:44:43.202Z,0.00
2018-12-29T02:45:43.201Z,0.00
2018-12-29T02:46:43.184Z,0.00
2018-12-29T02:47:43.197Z,0.00
2018-12-29T02:48:43.161Z,0.00
2018-12-29T02:49:43.193Z,0.00
2018-12-29T02:50:43.139Z,0.00
2018-12-29T02:51:43.124Z,0.00
2018-12-29T02:52:43.136Z,0.00
2018-12-29T02:53:43.146Z,0.00
2018-12-29T02:54:43.089Z,0.00
2018-12-29T02:55:43.078Z,0.00
2018-12-29T02:56:43.087Z,0.00
2018-12-29T02:57:43.083Z,0.00
2018-12-29T02:58:43.054Z,0.00
2018-12-29T02:59:43.034Z,0.00
2018-12-29T03:00:43.026Z,0.00
2018-12-29T03:01:43.011Z,0.00
2018-12-29T03:02:43.084Z,0.00
2018-12-29T03:03:43.002Z,0.00
2018-12-29T03:04:42.976Z,0.00
2018-12-29T03:05:42.969Z,0.00
2018-12-29T03:06:42.964Z,0.00
2018-12-29T03:07:42.953Z,0.00
2018-12-29T03:08:43.008Z,0.00
2018-12-29T03:09:42.947Z,0.00
2018-12-29T03:10:42.919Z,0.00
2018-12-29T03:11:42.906Z,0.00
2018-12-29T03:12:42.896Z,0.00
2018-12-29T03:13:42.905Z,0.00
2018-12-29T03:14:42.870Z,0.00
2018-12-29T03:15:42.915Z,0.00
2018-12-29T03:16:42.849Z,0.00
2018-12-29T03:17:42.839Z,0.00
2018-12-29T03:18:42.852Z,0.00
2018-12-29T03:19:42.815Z,0.00
2018-12-29T03:20:42.810Z,0.00
2018-12-29T03:21:42.800Z,0.00
2018-12-29T03:22:42.784Z,0.00
2018-12-29T03:23:42.821Z,0.00
2018-12-29T03:24:42.764Z,0.00
2018-12-29T03:25:42.748Z,0.00
2018-12-29T03:26:42.738Z,0.00
2018-12-29T03:27:42.750Z,0.00
2018-12-29T03:28:42.717Z,0.00
2018-12-29T03:29:42.754Z,0.00
2018-12-29T03:30:42.692Z,0.00
2018-12-29T03:31:42.683Z,0.00
2018-12-29T03:32:42.674Z,0.00
2018-12-29T03:33:42.657Z,0.00
2018-12-29T03:34:42.672Z,0.00
2018-12-29T03:35:42.662Z,0.00
2018-12-29T03:36:42.627Z,0.00
2018-12-29T03:37:42.620Z,0.00
2018-12-29T03:38:42.602Z,0.00
2018-12-29T03:39:42.626Z,0.00
2018-12-29T03:40:42.584Z,0.00
2018-12-29T03:41:42.567Z,0.00
2018-12-29T03:42:42.583Z,0.00
2018-12-29T03:43:42.549Z,0.00
2018-12-29T03:44:42.553Z,0.00
2018-12-29T03:45:49.103Z,0.00
2018-12-29T03:46:43.509Z,0.00
2018-12-29T03:47:42.502Z,0.00
2018-12-29T03:48:42.525Z,0.00
2018-12-29T03:49:42.502Z,0.00
2018-12-29T03:50:42.476Z,0.00
2018-12-29T03:51:42.458Z,0.00
2018-12-29T03:52:42.459Z,0.00
2018-12-29T03:53:42.433Z,0.00
2018-12-29T03:54:42.447Z,0.00
2018-12-29T03:55:42.453Z,0.00
2018-12-29T03:56:42.404Z,0.00
2018-12-29T03:57:42.409Z,0.00
2018-12-29T03:58:42.383Z,0.00
2018-12-29T03:59:42.363Z,0.00
2018-12-29T04:00:42.387Z,0.00
2018-12-29T04:01:42.390Z,0.00
2018-12-29T04:02:42.343Z,0.00
2018-12-29T04:03:42.321Z,0.00
2018-12-29T04:04:42.321Z,0.00
2018-12-29T04:05:42.324Z,0.00
2018-12-29T04:06:42.294Z,0.00
2018-12-29T04:07:42.287Z,0.00
2018-12-29T04:08:42.292Z,0.00
2018-12-29T04:09:42.255Z,0.00
2018-12-29T04:10:42.267Z,0.00
2018-12-29T04:11:42.234Z,0.00
2018-12-29T04:12:42.216Z,0.00
2018-12-29T04:13:42.211Z,0.00
2018-12-29T04:14:42.233Z,0.00
2018-12-29T04:15:42.208Z,0.00
2018-12-29T04:16:42.169Z,0.00
2018-12-29T04:17:42.178Z,0.00
2018-12-29T04:18:42.157Z,0.00
2018-12-29T04:19:42.144Z,0.00
2018-12-29T04:20:42.181Z,0.00
2018-12-29T04:21:42.121Z,0.00
2018-12-29T04:22:42.107Z,0.00
2018-12-29T04:23:42.122Z,0.00
2018-12-29T04:24:42.085Z,0.00
2018-12-29T04:25:42.077Z,0.00
2018-12-29T04:26:42.118Z,0.00
2018-12-29T04:27:42.055Z,0.00
2018-12-29T04:28:42.043Z,0.00
2018-12-29T04:29:42.023Z,0.00
2018-12-29T04:30:42.016Z,0.00
2018-12-29T04:31:42.031Z,0.00
2018-12-29T04:32:42.050Z,0.00
2018-12-29T04:33:42.008Z,0.00
2018-12-29T04:34:41.973Z,0.00
2018-12-29T04:35:41.960Z,0.00
2018-12-29T04:36:41.951Z,0.00
2018-12-29T04:37:41.962Z,0.00
2018-12-29T04:38:41.967Z,0.00
2018-12-29T04:39:41.918Z,0.00
2018-12-29T04:40:41.904Z,0.00
2018-12-29T04:41:41.892Z,0.00
2018-12-29T04:42:41.908Z,0.00
2018-12-29T04:43:41.867Z,0.00
2018-12-29T04:44:41.897Z,0.00
2018-12-29T04:45:41.850Z,0.00
2018-12-29T04:46:41.839Z,0.00
2018-12-29T04:47:41.852Z,0.00
2018-12-29T04:48:41.810Z,0.00
2018-12-29T04:49:41.805Z,0.00
2018-12-29T04:50:41.813Z,0.00
2018-12-29T04:51:41.792Z,0.00
2018-12-29T04:52:41.803Z,0.00
2018-12-29T04:53:41.762Z,0.00
2018-12-29T04:54:41.745Z,0.00
2018-12-29T04:55:41.736Z,0.00
2018-12-29T04:56:41.730Z,0.00
2018-12-29T04:57:41.771Z,0.00
2018-12-29T04:58:41.726Z,0.00
2018-12-29T04:59:41.704Z,0.00
2018-12-29T05:00:41.686Z,0.00
2018-12-29T05:01:41.667Z,0.00
2018-12-29T05:02:41.658Z,0.00
2018-12-29T05:03:41.670Z,0.00
2018-12-29T05:04:41.661Z,0.00
2018-12-29T05:05:41.621Z,0.00
2018-12-29T05:06:41.613Z,0.00
2018-12-29T05:07:41.607Z,0.00
2018-12-29T05:08:41.616Z,0.00
2018-12-29T05:09:41.579Z,0.00
2018-12-29T05:10:41.603Z,0.00
2018-12-29T05:11:41.567Z,0.00
2018-12-29T05:12:41.544Z,0.00
2018-12-29T05:13:41.557Z,0.00
2018-12-29T05:14:41.525Z,0.00
2018-12-29T05:15:41.516Z,0.00
2018-12-29T05:16:41.499Z,0.00
2018-12-29T05:17:41.539Z,0.00
2018-12-29T05:18:41.502Z,0.00
2018-12-29T05:19:41.477Z,0.00
2018-12-29T05:20:41.463Z,0.00
2018-12-29T05:21:41.446Z,0.00
2018-12-29T05:22:41.434Z,0.00
2018-12-29T05:23:41.482Z,0.00
2018-12-29T05:24:41.437Z,0.00
2018-12-29T05:25:41.407Z,0.00
2018-12-29T05:26:41.395Z,0.00
2018-12-29T05:27:41.379Z,0.00
2018-12-29T05:28:41.369Z,0.00
2018-12-29T05:29:41.383Z,0.00
2018-12-29T05:30:41.384Z,0.00
2018-12-29T05:31:41.336Z,0.00
2018-12-29T05:32:41.327Z,0.00
2018-12-29T05:33:41.317Z,0.00
2018-12-29T05:34:41.326Z,0.00
2018-12-29T05:35:41.296Z,0.00
2018-12-29T05:36:41.321Z,0.00
2018-12-29T05:37:41.270Z,0.00
2018-12-29T05:38:41.252Z,0.00
2018-12-29T05:39:41.271Z,0.00
2018-12-29T05:40:41.237Z,0.00
2018-12-29T05:41:41.226Z,0.00
2018-12-29T05:42:41.248Z,0.00
2018-12-29T05:43:41.208Z,0.00
2018-12-29T05:44:41.216Z,0.00
2018-12-29T05:45:41.182Z,0.00
2018-12-29T05:46:41.174Z,0.00
2018-12-29T05:47:41.160Z,0.00
2018-12-29T05:48:41.187Z,0.00
2018-12-29T05:49:41.168Z,0.00
2018-12-29T05:50:41.137Z,0.00
2018-12-29T05:51:41.114Z,0.00
2018-12-29T05:52:41.104Z,0.00
2018-12-29T05:53:41.100Z,0.00
2018-12-29T05:54:41.147Z,0.00
2018-12-29T05:55:41.073Z,0.00
2018-12-29T05:56:41.061Z,0.00
2018-12-29T05:57:41.051Z,0.00
2018-12-29T05:58:41.063Z,0.00
2018-12-29T05:59:41.064Z,0.00
2018-12-29T06:00:41.066Z,0.00
2018-12-29T06:01:41.003Z,0.00
2018-12-29T06:02:40.995Z,0.00
2018-12-29T06:03:40.979Z,0.00
2018-12-29T06:04:40.975Z,0.00
2018-12-29T06:05:41.069Z,0.00
2018-12-29T06:06:40.950Z,0.00
2018-12-29T06:07:40.965Z,0.00
2018-12-29T06:08:40.924Z,0.00
2018-12-29T06:09:40.922Z,0.00
2018-12-29T06:10:40.933Z,0.00
2018-12-29T06:11:40.902Z,0.00
2018-12-29T06:12:40.887Z,0.00
2018-12-29T06:13:40.893Z,0.00
2018-12-29T06:14:40.866Z,0.00
2018-12-29T06:15:40.875Z,0.00
2018-12-29T06:16:40.841Z,0.00
2018-12-29T06:17:40.905Z,0.00
2018-12-29T06:18:40.816Z,0.00
2018-12-29T06:19:40.839Z,0.00
2018-12-29T06:20:40.821Z,0.00
2018-12-29T06:21:40.786Z,0.00
2018-12-29T06:22:40.775Z,0.00
2018-12-29T06:23:40.769Z,0.00
2018-12-29T06:24:40.752Z,0.00
2018-12-29T06:25:40.760Z,0.00
2018-12-29T06:26:40.751Z,0.00
2018-12-29T06:27:40.714Z,0.00
2018-12-29T06:28:40.708Z,0.00
2018-12-29T06:29:40.711Z,0.00
2018-12-29T06:30:40.737Z,0.00
2018-12-29T06:31:40.682Z,0.00
2018-12-29T06:32:40.663Z,0.00
2018-12-29T06:33:40.677Z,0.00
2018-12-29T06:34:40.703Z,0.00
2018-12-29T06:35:40.653Z,0.00
2018-12-29T06:36:40.622Z,0.00
2018-12-29T06:37:40.610Z,0.00
2018-12-29T06:38:40.599Z,0.00
2018-12-29T06:39:40.625Z,0.00
2018-12-29T06:40:40.607Z,0.00
2018-12-29T06:41:40.613Z,0.00
2018-12-29T06:42:40.560Z,0.00
2018-12-29T06:43:40.547Z,0.00
2018-12-29T06:44:40.533Z,0.00
2018-12-29T06:45:40.580Z,0.00
2018-12-29T06:46:40.511Z,0.00
2018-12-29T06:47:40.503Z,0.00
2018-12-29T06:48:40.487Z,0.00
2018-12-29T06:49:40.479Z,0.00
2018-12-29T06:50:40.489Z,0.00
2018-12-29T06:51:40.452Z,0.00
2018-12-29T06:52:40.501Z,0.00
2018-12-29T06:53:40.437Z,0.00
2018-12-29T06:54:40.419Z,0.00
2018-12-29T06:55:40.431Z,0.00
2018-12-29T06:56:40.406Z,0.00
2018-12-29T06:57:40.388Z,0.00
2018-12-29T06:58:40.374Z,0.00
2018-12-29T06:59:40.364Z,0.00
2018-12-29T07:00:40.379Z,4.00
2018-12-29T07:01:40.409Z,4.00
2018-12-29T07:02:40.329Z,4.00
2018-12-29T07:03:40.321Z,0.00
2018-12-29T07:04:40.308Z,0.00
2018-12-29T07:05:40.300Z,4.00
2018-12-29T07:06:40.350Z,0.00
2018-12-29T07:07:40.269Z,4.00
2018-12-29T07:08:40.260Z,4.00
2018-12-29T07:09:40.296Z,4.00
2018-12-29T07:10:40.243Z,4.00
2018-12-29T07:11:40.254Z,8.00
2018-12-29T07:12:40.222Z,8.00
2018-12-29T07:13:40.241Z,8.00
2018-12-29T07:14:40.204Z,12.00
2018-12-29T07:15:40.189Z,8.00
2018-12-29T07:16:42.401Z,12.00
2018-12-29T07:17:40.161Z,16.00
2018-12-29T07:18:40.179Z,16.00
2018-12-29T07:19:40.138Z,20.00
2018-12-29T07:20:40.128Z,24.00
2018-12-29T07:21:40.139Z,24.00
2018-12-29T07:22:40.117Z,32.00
2018-12-29T07:23:40.098Z,36.00
2018-12-29T07:24:40.137Z,40.00
2018-12-29T07:25:40.071Z,40.00
2018-12-29T07:26:40.084Z,52.00
2018-12-29T07:27:40.046Z,56.00
2018-12-29T07:28:40.036Z,64.00
2018-12-29T07:29:40.032Z,72.00
2018-12-29T07:30:40.043Z,76.00
2018-12-29T07:31:40.028Z,88.00
2018-12-29T07:32:39.996Z,92.00
2018-12-29T07:33:39.984Z,100.00
2018-12-29T07:34:39.980Z,108.00
2018-12-29T07:35:39.959Z,120.00
2018-12-29T07:36:39.970Z,128.00
2018-12-29T07:37:39.996Z,148.00
2018-12-29T07:38:39.925Z,164.00
2018-12-29T07:39:39.917Z,196.00
2018-12-29T07:40:39.907Z,228.00
2018-12-29T07:41:39.916Z,252.00
2018-12-29T07:42:39.883Z,264.00
2018-12-29T07:43:39.870Z,280.00
2018-12-29T07:44:39.890Z,312.00
2018-12-29T07:45:39.871Z,320.00
2018-12-29T07:46:39.863Z,328.00
2018-12-29T07:47:39.821Z,332.00
2018-12-29T07:48:39.810Z,336.00
2018-12-29T07:49:39.810Z,324.00
2018-12-29T07:50:39.793Z,348.00
2018-12-29T07:51:39.810Z,384.00
2018-12-29T07:52:39.832Z,428.00
2018-12-29T07:53:39.754Z,432.00
2018-12-29T07:54:39.752Z,440.00
2018-12-29T07:55:39.737Z,468.00
2018-12-29T07:56:39.731Z,472.00
2018-12-29T07:57:39.745Z,484.00
2018-12-29T07:58:39.696Z,512.00
2018-12-29T07:59:39.688Z,532.00
2018-12-29T08:00:39.682Z,536.00
2018-12-29T08:01:39.714Z,516.00
2018-12-29T08:02:39.681Z,512.00
2018-12-29T08:03:39.645Z,520.00
2018-12-29T08:04:39.639Z,552.00
2018-12-29T08:05:39.622Z,616.00
2018-12-29T08:06:39.620Z,688.00
2018-12-29T08:07:39.624Z,728.00
2018-12-29T08:08:39.595Z,768.00
2018-12-29T08:09:39.578Z,816.00
2018-12-29T08:10:39.565Z,868.00
2018-12-29T08:11:39.552Z,920.00
2018-12-29T08:12:39.610Z,920.00
2018-12-29T08:13:39.531Z,908.00
2018-12-29T08:14:39.516Z,956.00
2018-12-29T08:15:39.509Z,1040.00
2018-12-29T08:16:39.499Z,1108.00
2018-12-29T08:17:39.507Z,1120.00
2018-12-29T08:18:39.521Z,1108.00
2018-12-29T08:19:39.460Z,1116.00
2018-12-29T08:20:39.457Z,1196.00
2018-12-29T08:21:39.443Z,1272.00
2018-12-29T08:22:39.455Z,1296.00
2018-12-29T08:23:39.416Z,1300.00
2018-12-29T08:24:39.406Z,1296.00
2018-12-29T08:25:39.433Z,1204.00
2018-12-29T08:26:39.383Z,1100.00
2018-12-29T08:27:40.680Z,1172.00
2018-12-29T08:28:39.367Z,1260.00
2018-12-29T08:29:39.348Z,1384.00
2018-12-29T08:30:39.337Z,1536.00
2018-12-29T08:31:39.323Z,1672.00
2018-12-29T08:32:39.348Z,1740.00
2018-12-29T08:33:39.302Z,1772.00
2018-12-29T08:34:39.323Z,1792.00
2018-12-29T08:35:39.276Z,1816.00
2018-12-29T08:36:39.269Z,1856.00
2018-12-29T08:37:39.340Z,1896.00
2018-12-29T08:38:39.243Z,1932.00
2018-12-29T08:39:39.241Z,1940.00
2018-12-29T08:40:39.221Z,1940.00
2018-12-29T08:41:39.252Z,1956.00
2018-12-29T08:42:39.233Z,1968.00
2018-12-29T08:43:39.193Z,2000.00
2018-12-29T08:44:39.190Z,2052.00
2018-12-29T08:45:39.176Z,2116.00
2018-12-29T08:46:39.161Z,2172.00
2018-12-29T08:47:39.223Z,2188.00
2018-12-29T08:48:39.165Z,2204.00
2018-12-29T08:49:39.131Z,2244.00
2018-12-29T08:50:39.122Z,2308.00
2018-12-29T08:51:39.106Z,2392.00
2018-12-29T08:52:39.128Z,2472.00
2018-12-29T08:53:39.102Z,2556.00
2018-12-29T08:54:39.072Z,2620.00
2018-12-29T08:55:39.058Z,2664.00
2018-12-29T08:56:39.062Z,2692.00
2018-12-29T08:57:39.043Z,2716.00
2018-12-29T08:58:39.099Z,2712.00
2018-12-29T08:59:39.014Z,2708.00
2018-12-29T09:00:39.003Z,2692.00
2018-12-29T09:01:39.003Z,2700.00
2018-12-29T09:02:38.983Z,2728.00
2018-12-29T09:03:38.991Z,2760.00
2018-12-29T09:04:38.959Z,2784.00
2018-12-29T09:05:38.948Z,2812.00
2018-12-29T09:06:38.982Z,2840.00
2018-12-29T09:07:38.922Z,2856.00
2018-12-29T09:08:38.935Z,2884.00
2018-12-29T09:09:38.905Z,2892.00
2018-12-29T09:10:38.896Z,2868.00
2018-12-29T09:11:38.884Z,2832.00
2018-12-29T09:12:38.899Z,2792.00
2018-12-29T09:13:38.891Z,2740.00
2018-12-29T09:14:38.857Z,2700.00
2018-12-29T09:15:39.314Z,2660.00
2018-12-29T09:16:38.830Z,2636.00
2018-12-29T09:17:38.821Z,2620.00
2018-12-29T09:18:38.825Z,2644.00
2018-12-29T09:19:38.800Z,2688.00
2018-12-29T09:20:38.785Z,2720.00
2018-12-29T09:21:38.774Z,2744.00
2018-12-29T09:22:38.791Z,2784.00
2018-12-29T09:23:38.771Z,2844.00
2018-12-29T09:24:38.743Z,2932.00
2018-12-29T09:25:38.723Z,3032.00
2018-12-29T09:26:38.720Z,3116.00
2018-12-29T09:27:38.712Z,3160.00
2018-12-29T09:28:38.730Z,3200.00
2018-12-29T09:29:38.707Z,3248.00
2018-12-29T09:30:38.672Z,3292.00
2018-12-29T09:31:38.663Z,3332.00
2018-12-29T09:32:38.649Z,3348.00
2018-12-29T09:33:38.664Z,3344.00
2018-12-29T09:34:38.630Z,3320.00
2018-12-29T09:35:38.658Z,3280.00
2018-12-29T09:36:38.601Z,3220.00
2018-12-29T09:37:38.595Z,3140.00
2018-12-29T09:38:38.612Z,3044.00
2018-12-29T09:39:38.575Z,2964.00
2018-12-29T09:40:38.560Z,2852.00
2018-12-29T09:41:38.582Z,2664.00
2018-12-29T09:42:38.544Z,2416.00
2018-12-29T09:43:38.550Z,2180.00
2018-12-29T09:44:38.516Z,1976.00
2018-12-29T09:45:38.504Z,1828.00
2018-12-29T09:46:38.499Z,1740.00
2018-12-29T09:47:38.516Z,1676.00
2018-12-29T09:48:38.501Z,1628.00
2018-12-29T09:49:38.488Z,1596.00
2018-12-29T09:50:38.453Z,1568.00
2018-12-29T09:51:38.438Z,1536.00
2018-12-29T09:52:38.422Z,1516.00
2018-12-29T09:53:38.423Z,1488.00
2018-12-29T09:54:38.473Z,1480.00
2018-12-29T09:55:38.400Z,1500.00
2018-12-29T09:56:38.387Z,1520.00
2018-12-29T09:57:38.368Z,1540.00
2018-12-29T09:58:38.362Z,1548.00
2018-12-29T09:59:38.372Z,1540.00
2018-12-29T10:00:38.344Z,1544.00
2018-12-29T10:01:38.326Z,1536.00
2018-12-29T10:02:38.340Z,1524.00
2018-12-29T10:03:38.305Z,1532.00
2018-12-29T10:04:38.320Z,1552.00
2018-12-29T10:05:38.293Z,1560.00
2018-12-29T10:06:38.276Z,1568.00
2018-12-29T10:07:38.258Z,1620.00
2018-12-29T10:08:38.294Z,1708.00
2018-12-29T10:09:38.263Z,1796.00
2018-12-29T10:10:38.225Z,1864.00
2018-12-29T10:11:38.218Z,1936.00
2018-12-29T10:12:38.202Z,2020.00
2018-12-29T10:13:38.188Z,2104.00
2018-12-29T10:14:38.242Z,2156.00
2018-12-29T10:15:38.168Z,2184.00
2018-12-29T10:16:38.160Z,2224.00
2018-12-29T10:17:38.164Z,2284.00
2018-12-29T10:18:38.141Z,2380.00
2018-12-29T10:19:38.151Z,2476.00
2018-12-29T10:20:38.114Z,2536.00
2018-12-29T10:21:38.114Z,2508.00
2018-12-29T10:22:38.119Z,2392.00
2018-12-29T10:23:38.086Z,2376.00
2018-12-29T10:24:38.100Z,2468.00
2018-12-29T10:25:38.065Z,2540.00
2018-12-29T10:26:38.055Z,2520.00
2018-12-29T10:27:38.039Z,2456.00
2018-12-29T10:28:38.029Z,2372.00
2018-12-29T10:29:38.076Z,2280.00
2018-12-29T10:30:38.876Z,2240.00
2018-12-29T10:31:37.995Z,2264.00
2018-12-29T10:32:37.989Z,2280.00
2018-12-29T10:33:37.971Z,2268.00
2018-12-29T10:34:37.983Z,2252.00
2018-12-29T10:35:37.950Z,2236.00
2018-12-29T10:36:37.940Z,2212.00
2018-12-29T10:37:37.933Z,2208.00
2018-12-29T10:38:37.963Z,2224.00
2018-12-29T10:39:37.928Z,2264.00
2018-12-29T10:40:37.915Z,2340.00
2018-12-29T10:41:37.893Z,2436.00
2018-12-29T10:42:37.870Z,2520.00
2018-12-29T10:43:37.872Z,2548.00
2018-12-29T10:44:37.853Z,2524.00
2018-12-29T10:45:37.865Z,2528.00
2018-12-29T10:46:37.859Z,2620.00
2018-12-29T10:47:37.817Z,2764.00
2018-12-29T10:48:37.806Z,2860.00
2018-12-29T10:49:37.799Z,2924.00
2018-12-29T10:50:37.808Z,2808.00
2018-12-29T10:51:37.778Z,2612.00
2018-12-29T10:52:37.760Z,2440.00
2018-12-29T10:53:37.771Z,2328.00
2018-12-29T10:54:37.747Z,2224.00
2018-12-29T10:55:37.751Z,2164.00
2018-12-29T10:56:37.716Z,2200.00
2018-12-29T10:57:37.705Z,2284.00
2018-12-29T10:58:37.704Z,2328.00
2018-12-29T10:59:37.690Z,2324.00
2018-12-29T11:00:37.698Z,2288.00
2018-12-29T11:01:37.660Z,2312.00
2018-12-29T11:02:37.689Z,2436.00
2018-12-29T11:03:37.637Z,2580.00
2018-12-29T11:04:37.637Z,2676.00
2018-12-29T11:05:37.640Z,2816.00
2018-12-29T11:06:37.603Z,3024.00
2018-12-29T11:07:37.591Z,3152.00
2018-12-29T11:08:37.635Z,3156.00
2018-12-29T11:09:37.574Z,2976.00
2018-12-29T11:10:37.582Z,2872.00
2018-12-29T11:11:37.557Z,2796.00
2018-12-29T11:12:37.541Z,2728.00
2018-12-29T11:13:37.530Z,2664.00
2018-12-29T11:14:37.516Z,2572.00
2018-12-29T11:15:37.577Z,2540.00
2018-12-29T11:16:37.501Z,2560.00
2018-12-29T11:17:42.177Z,2576.00
2018-12-29T11:18:38.478Z,2596.00
2018-12-29T11:19:37.459Z,2668.00
2018-12-29T11:20:37.475Z,2680.00
2018-12-29T11:21:37.443Z,2664.00
2018-12-29T11:22:37.458Z,2712.00
2018-12-29T11:23:37.426Z,2828.00
2018-12-29T11:24:37.601Z,2908.00
2018-12-29T11:25:37.436Z,2912.00
2018-12-29T11:26:37.385Z,2956.00
2018-12-29T11:27:37.376Z,2972.00
2018-12-29T11:28:37.402Z,2824.00
2018-12-29T11:29:37.355Z,2800.00
2018-12-29T11:30:37.359Z,2892.00
2018-12-29T11:31:37.387Z,3016.00
2018-12-29T11:32:38.298Z,3100.00
2018-12-29T11:33:37.325Z,3208.00
2018-12-29T11:34:37.292Z,3320.00
2018-12-29T11:35:37.288Z,3396.00
2018-12-29T11:36:37.334Z,3380.00
2018-12-29T11:37:37.259Z,3256.00
2018-12-29T11:38:37.258Z,3116.00
2018-12-29T11:39:37.239Z,3124.00
2018-12-29T11:40:37.261Z,3180.00
2018-12-29T11:41:37.244Z,3248.00
2018-12-29T11:42:37.209Z,3480.00
2018-12-29T11:43:37.196Z,3684.00
2018-12-29T11:44:37.191Z,3864.00
2018-12-29T11:45:37.215Z,4052.00
2018-12-29T11:46:37.187Z,4264.00
2018-12-29T11:47:37.148Z,4616.00
2018-12-29T11:48:37.139Z,4864.00
2018-12-29T11:49:37.133Z,5068.00
2018-12-29T11:50:37.118Z,5096.00
2018-12-29T11:51:37.135Z,5076.00
2018-12-29T11:52:37.106Z,4916.00
2018-12-29T11:53:37.078Z,4264.00
2018-12-29T11:54:37.106Z,3772.00
2018-12-29T11:55:37.058Z,3572.00
2018-12-29T11:56:37.074Z,3656.00
2018-12-29T11:57:37.046Z,3540.00
2018-12-29T11:58:37.027Z,3084.00
2018-12-29T11:59:37.011Z,2860.00
2018-12-29T12:00:37.009Z,2896.00
2018-12-29T12:01:37.025Z,2960.00
2018-12-29T12:02:37.024Z,3104.00
2018-12-29T12:03:36.977Z,3260.00
2018-12-29T12:04:36.972Z,3288.00
2018-12-29T12:05:36.955Z,3328.00
2018-12-29T12:06:36.962Z,3204.00
2018-12-29T12:07:36.934Z,3072.00
2018-12-29T12:08:36.922Z,2920.00
2018-12-29T12:09:36.917Z,2752.00
2018-12-29T12:10:36.899Z,2572.00
2018-12-29T12:11:36.906Z,2468.00
2018-12-29T12:12:36.911Z,2508.00
2018-12-29T12:13:36.881Z,2420.00
2018-12-29T12:14:36.853Z,2280.00
2018-12-29T12:15:36.841Z,2240.00
2018-12-29T12:16:36.854Z,2244.00
2018-12-29T12:17:36.825Z,2420.00
2018-12-29T12:18:36.809Z,2716.00
2018-12-29T12:19:36.811Z,2844.00
2018-12-29T12:20:36.788Z,2568.00
2018-12-29T12:21:36.802Z,2540.00
2018-12-29T12:22:36.759Z,2732.00
2018-12-29T12:23:36.766Z,2720.00
2018-12-29T12:24:36.739Z,2648.00
2018-12-29T12:25:36.727Z,2540.00
2018-12-29T12:26:36.741Z,2420.00
2018-12-29T12:27:36.744Z,2516.00
2018-12-29T12:28:36.695Z,2716.00
2018-12-29T12:29:36.688Z,2720.00
2018-12-29T12:30:36.670Z,2672.00
2018-12-29T12:31:36.699Z,2632.00
2018-12-29T12:32:36.678Z,2520.00
2018-12-29T12:33:36.641Z,2388.00
2018-12-29T12:34:36.629Z,2444.00
2018-12-29T12:35:36.614Z,2540.00
2018-12-29T12:36:36.612Z,2536.00
2018-12-29T12:37:36.621Z,2612.00
2018-12-29T12:38:36.597Z,2644.00
2018-12-29T12:39:36.578Z,2620.00
2018-12-29T12:40:36.598Z,2552.00
2018-12-29T12:41:36.563Z,2548.00
2018-12-29T12:42:36.569Z,2680.00
2018-12-29T12:43:36.531Z,2796.00
2018-12-29T12:44:36.520Z,2788.00
2018-12-29T12:45:36.506Z,2744.00
2018-12-29T12:46:36.494Z,2680.00
2018-12-29T12:47:36.507Z,2688.00